Date,TemperatureHighF,TemperatureAvgF,TemperatureLowF,DewpointHighF,DewpointAvgF,DewpointLowF,HumidityHigh,HumidityAvg,HumidityLow,PressureMaxIn,PressureMinIn,WindSpeedMaxMPH,WindSpeedAvgMPH,GustSpeedMaxMPH,PrecipitationSumIn
2013-1-1,24.0,21.4,17.4,17.0,13.1,10.9,81,70,61,30.18,30.05,17,4,18,0.00
2013-1-2,25.7,21.9,15.5,23.2,17.8,11.0,90,84,79,30.18,30.08,14,2,14,0.00
2013-1-3,28.5,25.3,20.7,24.0,20.8,15.7,88,83,74,30.15,30.04,17,4,20,0.00
2013-1-4,31.2,28.1,25.1,24.8,23.2,20.4,89,82,76,30.16,29.98,25,6,26,0.00
2013-1-5,37.4,28.8,19.3,32.5,25.8,17.9,96,89,71,30.24,29.94,13,2,15,0.00
2013-1-6,35.4,33.4,29.5,33.4,29.6,23.8,94,86,76,30.26,29.83,15,4,15,0.05
2013-1-7,37.4,31.9,27.9,27.1,23.3,18.4,86,71,47,30.31,30.07,22,5,22,0.00
2013-1-8,39.3,32.4,27.9,31.7,27.5,24.7,89,82,73,30.20,30.08,14,3,15,0.00
2013-1-9,44.9,37.8,30.7,34.6,29.3,26.1,84,72,49,30.41,29.92,30,7,33,0.00
2013-1-10,42.4,34.2,26.1,32.5,28.0,23.6,94,78,61,30.56,30.15,12,2,12,0.17
2013-1-11,50.3,41.9,34.0,49.8,41.1,32.5,99,97,93,30.15,29.70,12,3,14,0.70
2013-1-12,56.9,47.2,38.8,49.1,40.4,31.8,98,79,49,29.93,29.73,21,4,22,0.00
2013-1-13,38.8,33.3,25.3,34.8,31.2,20.8,97,92,81,30.05,29.81,19,4,25,0.39
2013-1-14,25.3,21.4,18.2,21.1,15.7,12.0,89,79,68,30.43,30.05,23,5,24,0.00
2013-1-15,30.4,23.3,18.4,21.3,17.8,15.4,89,80,61,30.44,30.15,10,2,10,0.00
2013-1-16,35.7,28.2,19.8,29.8,23.1,16.3,91,82,56,30.15,29.73,23,5,23,0.00
2013-1-17,32.1,23.5,16.4,28.4,17.5,8.2,88,78,62,30.35,29.94,17,3,24,0.00
2013-1-18,35.6,24.0,12.0,27.8,17.4,7.8,86,76,59,30.43,29.85,24,5,25,0.00
2013-1-19,43.5,40.1,34.6,37.2,33.6,27.9,92,78,69,29.85,29.48,27,5,31,0.01
2013-1-20,36.0,18.1,12.4,32.0,10.5,4.4,88,72,58,30.21,29.50,38,10,39,0.00
2013-1-21,14.0,9.7,1.4,10.3,2.2,-6.0,85,72,48,30.16,30.00,24,7,25,0.00
2013-1-22,164.0,0.0,0.0,99.9,94.8,-7.1,81,79,70,30.16,30.01,16,4,17,0.00
2013-1-23,164.0,26.2,11.5,99.9,37.6,7.2,90,60,11,30.25,29.88,14,2,14,0.02
2013-1-24,16.1,11.0,5.3,7.7,2.9,-2.4,86,71,49,30.66,30.15,10,2,11,0.00
2013-1-25,21.6,17.0,13.0,17.4,12.5,4.1,92,82,65,30.52,30.01,11,2,12,0.00
2013-1-26,29.3,22.8,18.5,19.3,16.8,14.7,91,78,57,30.43,30.06,11,2,13,0.00
2013-1-27,29.7,24.3,18.8,26.1,19.3,14.4,96,82,67,30.45,30.09,14,3,16,0.00
2013-1-28,39.7,34.8,27.1,38.6,33.2,25.8,98,94,88,30.09,29.82,12,2,15,0.17
2013-1-29,53.5,42.2,33.8,53.2,41.4,32.5,99,97,89,30.00,29.38,12,2,15,1.24
2013-1-30,53.1,38.8,26.7,52.8,37.7,22.8,99,96,79,29.37,29.08,27,4,27,0.47
2013-1-31,26.7,20.2,16.2,23.4,14.1,8.4,87,77,59,29.90,29.28,29,10,29,0.00
2013-2-1,16.9,14.9,11.7,12.8,9.5,6.6,87,79,66,30.21,29.91,22,6,23,0.00
2013-2-2,17.3,12.9,7.3,12.0,8.1,2.8,90,81,64,30.17,30.03,10,1,11,0.00
2013-2-3,19.6,13.2,4.5,14.2,8.6,1.4,89,82,68,30.06,29.87,20,2,24,0.00
2013-2-4,21.6,16.1,11.8,13.5,10.6,6.8,90,79,60,30.02,29.92,7,1,8,0.00
2013-2-5,28.2,18.3,5.2,25.0,13.8,2.4,90,82,74,30.00,29.76,16,3,17,0.00
2013-2-6,31.6,23.8,12.2,22.3,17.6,10.1,93,77,60,30.30,30.00,12,2,14,0.00
2013-2-7,31.3,27.6,25.0,27.9,24.9,21.7,97,90,79,30.25,29.95,11,3,12,0.00
2013-2-8,31.7,25.3,14.5,27.8,21.5,12.2,97,86,63,30.40,29.92,16,3,17,0.00
2013-2-9,25.0,15.0,2.9,18.1,11.3,0.4,94,86,74,30.47,30.27,9,1,12,0.00
2013-2-10,37.7,24.1,9.3,36.5,21.6,7.0,97,90,80,30.27,29.59,14,2,17,0.00
2013-2-11,41.7,36.1,31.2,40.2,32.5,26.6,98,87,78,29.83,29.46,31,8,36,0.02
2013-2-12,31.3,28.8,25.5,26.9,23.4,20.7,84,80,73,30.02,29.83,20,5,20,0.00
2013-2-13,35.9,30.3,22.9,29.9,25.9,20.8,92,84,77,29.92,29.73,13,2,15,0.00
2013-2-14,40.6,33.6,27.5,34.9,30.8,21.6,95,89,75,29.86,29.60,24,4,24,0.04
2013-2-15,27.5,23.6,19.1,22.2,16.7,13.6,86,75,57,30.15,29.86,20,5,20,0.00
2013-2-16,23.4,18.0,12.3,15.7,13.2,7.5,91,82,58,30.13,30.04,12,2,12,0.00
2013-2-17,24.2,15.4,6.0,11.2,6.8,1.8,86,69,51,30.24,30.13,9,2,11,0.00
2013-2-18,42.7,30.7,18.7,40.3,22.5,11.2,93,72,55,30.17,29.48,15,4,16,0.02
2013-2-19,42.0,28.6,17.1,40.4,25.1,10.7,95,87,75,29.92,29.31,28,8,30,0.11
2013-2-20,22.6,19.3,15.0,17.1,12.9,9.7,84,76,66,30.28,29.92,23,8,25,0.00
2013-2-21,24.9,20.8,17.4,18.8,15.2,12.3,92,79,65,30.42,30.27,15,4,18,0.00
2013-2-22,30.4,24.7,20.7,29.7,23.2,18.9,97,94,85,30.30,29.84,22,4,22,0.00
2013-2-23,33.7,29.9,26.3,30.9,26.4,23.8,97,87,69,29.90,29.82,19,4,19,0.04
2013-2-24,37.2,31.7,26.1,29.2,25.4,22.8,93,79,57,30.15,29.87,16,3,16,0.03
2013-2-25,39.8,31.7,24.8,28.4,25.2,22.3,93,77,57,30.23,30.13,9,1,10,0.00
2013-2-26,36.5,30.5,24.3,32.0,26.3,20.9,98,85,71,30.15,29.60,26,7,27,0.00
2013-2-27,34.8,33.6,32.4,34.2,33.1,31.9,99,98,97,29.62,29.52,15,4,19,0.17
2013-2-28,36.7,33.4,29.2,32.4,28.9,21.4,97,83,72,30.02,29.62,18,4,19,0.04
2013-3-1,30.4,25.8,21.1,22.3,19.1,15.2,82,76,65,30.19,30.02,12,3,15,0.00
2013-3-2,28.2,21.4,17.7,18.4,15.4,12.3,85,78,64,30.17,30.11,11,2,13,0.00
2013-3-3,29.7,21.6,15.1,19.1,14.9,11.1,87,75,62,30.12,30.04,15,3,15,0.00
2013-3-4,36.1,23.0,12.0,19.0,14.8,9.7,91,73,43,30.18,30.10,8,2,9,0.00
2013-3-5,33.4,24.7,15.9,26.2,20.4,13.5,94,84,68,30.16,29.94,20,4,20,0.00
2013-3-6,41.2,34.5,28.0,31.5,29.4,26.0,93,82,66,30.22,29.98,12,2,15,0.00
2013-3-7,35.5,31.1,24.4,30.0,23.4,18.0,91,74,53,30.44,30.21,15,3,17,0.00
2013-3-8,40.9,29.8,17.8,25.2,21.0,15.0,89,71,49,30.54,30.40,8,1,9,0.00
2013-3-9,42.7,34.2,23.5,34.0,27.6,20.8,91,77,60,30.40,30.00,12,2,13,0.02
2013-3-10,46.7,40.8,34.3,42.9,38.1,32.3,96,90,84,30.00,29.76,6,1,7,0.17
2013-3-11,47.5,43.5,35.6,47.0,42.1,33.5,98,95,88,29.78,29.44,17,3,17,0.26
2013-3-12,36.2,32.0,27.6,33.5,28.5,23.9,94,87,76,29.88,29.58,21,4,22,0.00
2013-3-13,33.7,27.2,22.2,25.1,18.3,12.9,90,70,44,30.22,29.87,25,7,28,0.00
2013-3-14,40.7,29.7,20.9,23.1,18.4,13.7,81,64,41,30.27,30.06,15,3,15,0.00
2013-3-15,38.3,34.6,30.2,32.1,27.6,21.6,86,76,57,30.05,29.87,18,4,22,0.00
2013-3-16,33.2,28.2,22.7,27.3,22.9,17.3,95,81,66,30.08,29.83,13,3,15,0.06
2013-3-17,28.9,24.0,20.0,19.2,13.7,8.7,82,65,46,30.33,30.08,16,4,17,0.00
2013-3-18,33.3,26.2,18.3,31.5,22.5,13.4,97,86,70,30.25,29.55,16,4,17,0.00
2013-3-19,33.4,24.9,20.9,31.0,19.8,15.7,92,81,68,29.91,29.55,25,7,30,0.00
2013-3-20,26.1,22.5,18.3,17.8,14.2,11.4,81,70,57,29.96,29.89,19,6,24,0.00
2013-3-21,31.6,25.5,16.6,24.0,19.5,12.9,88,78,65,29.95,29.85,20,14,20,0.00
2013-3-22,37.4,29.5,24.6,25.8,21.3,18.0,81,72,58,30.05,29.95,18,11,18,0.00
2013-3-23,37.5,31.7,27.9,27.5,24.5,22.3,81,75,63,30.15,30.04,12,6,12,0.00
2013-3-24,36.8,33.1,27.8,27.6,24.5,22.4,89,71,58,30.09,29.76,20,7,21,0.00
2013-3-25,40.1,34.4,29.3,29.6,27.3,24.3,83,76,60,29.97,29.70,19,4,19,0.00
2013-3-26,42.4,36.6,31.8,32.8,29.0,25.1,89,74,59,30.15,29.97,15,4,15,0.00
2013-3-27,47.5,37.8,30.4,29.9,26.4,23.5,82,65,40,30.22,30.13,21,6,25,0.00
2013-3-28,50.6,40.0,30.9,29.0,25.4,22.2,79,58,35,30.28,30.22,15,4,17,0.00
2013-3-29,52.4,40.8,29.2,26.2,22.8,21.3,73,51,31,30.30,30.20,12,2,12,0.00
2013-3-30,53.9,42.4,29.0,31.2,23.4,18.6,76,50,25,30.23,29.85,14,2,16,0.00
2013-3-31,50.7,43.8,33.6,41.8,37.2,28.0,94,78,53,29.85,29.63,23,5,23,0.06
2013-4-1,33.6,29.0,25.4,28.1,16.9,11.3,87,61,43,30.10,29.74,24,8,27,0.00
2013-4-2,39.1,29.8,22.3,20.1,15.8,9.2,86,59,31,30.25,30.10,25,5,29,0.00
2013-4-3,44.1,32.9,23.1,19.2,16.4,12.5,76,53,31,30.45,30.25,18,3,18,0.00
2013-4-4,55.2,42.3,28.3,31.6,23.5,18.0,71,49,32,30.33,29.92,21,4,23,0.00
2013-4-5,46.1,38.5,31.0,31.9,21.1,11.9,80,52,26,30.22,29.96,16,4,18,0.00
2013-4-6,52.7,40.1,31.2,34.0,26.3,17.2,83,60,34,30.22,29.67,26,5,26,0.00
2013-4-7,54.6,44.5,37.6,48.8,37.4,31.8,91,76,56,30.05,29.50,27,6,28,0.04
2013-4-8,43.8,38.2,31.7,43.0,36.1,29.2,97,92,80,30.04,29.68,12,3,13,0.83
2013-4-9,41.7,40.0,37.8,41.2,39.3,37.1,98,97,95,30.09,29.91,12,2,13,1.27
2013-4-10,40.4,38.3,36.4,38.7,36.4,32.0,97,93,80,30.11,29.93,20,5,25,0.73
2013-4-11,37.4,34.0,32.4,33.1,32.1,30.9,98,93,78,30.06,29.75,33,9,34,0.57
2013-4-12,40.7,35.1,32.3,37.6,33.9,31.5,99,95,88,29.76,29.57,16,3,16,0.44
2013-4-13,39.2,35.8,33.5,35.3,30.9,24.6,97,83,59,29.97,29.74,27,5,31,0.04
2013-4-14,44.4,38.1,31.1,34.6,31.3,27.8,92,77,59,30.11,29.91,14,3,17,0.00
2013-4-15,65.6,51.7,35.2,55.6,46.1,32.4,95,82,65,29.91,29.81,23,4,23,0.32
2013-4-16,56.0,48.3,41.7,48.0,37.4,30.6,96,69,42,30.28,29.88,19,5,23,0.44
2013-4-17,48.7,42.0,37.5,40.2,35.2,31.3,96,78,55,30.37,30.06,19,4,19,0.40
2013-4-18,62.2,51.1,40.4,59.8,49.8,39.4,99,95,87,30.03,29.44,17,3,17,1.86
2013-4-19,60.8,41.0,33.2,57.8,35.2,25.7,95,80,64,29.71,29.33,33,8,33,0.15
2013-4-20,38.4,32.7,27.0,27.1,19.6,15.5,84,59,43,30.46,29.71,25,7,28,0.00
2013-4-21,51.2,38.2,24.8,32.1,23.7,18.3,79,58,38,30.63,30.43,17,3,17,0.00
2013-4-22,62.9,48.8,34.4,37.3,31.6,27.3,76,55,27,30.44,30.15,16,3,17,0.00
2013-4-23,60.4,49.2,37.1,52.2,42.0,34.1,96,77,60,30.15,29.82,14,3,16,0.42
2013-4-24,48.3,39.0,33.2,35.3,30.2,19.9,97,74,35,30.09,29.86,18,5,21,0.07
2013-4-25,49.5,39.5,36.8,39.0,30.8,23.6,92,72,37,30.32,30.00,28,4,28,0.05
2013-4-26,63.0,49.5,36.1,39.6,33.6,29.9,81,57,35,30.41,30.25,18,4,20,0.00
2013-4-27,71.2,59.5,46.1,45.5,40.5,36.0,78,52,29,30.28,30.07,13,3,17,0.00
2013-4-28,65.6,56.2,48.4,53.4,44.8,38.6,90,67,50,30.07,29.84,15,2,15,0.00
2013-4-29,73.6,63.0,52.1,54.8,51.7,49.2,91,69,43,29.91,29.82,16,2,16,0.00
2013-4-30,74.7,64.5,56.1,61.2,56.6,52.6,94,76,61,30.00,29.84,21,5,25,0.29
2013-5-1,85.3,73.1,60.4,59.6,56.6,53.8,82,59,36,30.17,29.98,14,4,17,0.00
2013-5-2,82.3,71.3,58.7,59.0,54.5,48.2,85,58,32,30.21,30.06,18,3,18,0.00
2013-5-3,81.5,68.7,56.6,58.2,50.4,36.8,79,54,32,30.10,30.00,18,4,25,0.00
2013-5-4,75.0,65.5,55.4,50.2,42.4,31.0,72,46,22,30.10,30.03,18,3,22,0.00
2013-5-5,76.2,62.6,48.9,47.5,40.9,23.9,81,49,15,30.10,30.01,18,2,21,0.00
2013-5-6,77.7,63.9,48.9,47.3,38.4,24.1,81,45,15,30.07,29.96,16,2,18,0.00
2013-5-7,79.0,65.2,48.5,49.0,42.4,34.9,76,46,27,30.07,29.98,13,2,17,0.00
2013-5-8,82.0,68.4,53.0,51.0,45.2,40.7,65,45,26,30.02,29.92,10,1,10,0.00
2013-5-9,82.4,68.6,53.2,50.6,44.9,37.1,78,46,21,29.95,29.85,11,2,14,0.00
2013-5-10,61.6,46.7,41.7,50.9,43.6,40.4,96,89,54,29.93,29.83,20,4,23,0.55
2013-5-11,58.4,45.6,38.6,49.2,41.1,34.0,95,85,63,29.92,29.70,24,4,28,0.06
2013-5-12,42.2,38.7,34.2,37.1,30.2,25.2,92,72,54,30.10,29.84,28,8,30,0.01
2013-5-13,56.7,43.9,31.1,30.6,26.3,21.8,81,54,27,30.18,30.05,16,3,17,0.00
2013-5-14,75.0,57.7,46.1,53.0,39.1,27.5,85,51,39,30.05,29.68,12,3,14,0.02
2013-5-15,78.0,66.6,54.7,57.3,48.2,33.6,86,56,21,29.79,29.48,18,5,21,0.00
2013-5-16,79.5,66.2,53.3,47.8,42.2,30.1,68,45,21,30.04,29.77,15,3,16,0.00
2013-5-17,61.3,53.8,45.7,48.6,44.2,41.4,88,71,55,30.19,30.04,11,2,12,0.00
2013-5-18,77.4,62.3,51.4,51.4,47.4,44.3,86,62,34,30.18,30.02,13,3,15,0.00
2013-5-19,86.3,70.5,52.2,61.1,54.3,47.1,84,59,38,30.03,29.82,14,2,14,0.00
2013-5-20,87.4,73.0,65.9,69.6,65.4,60.8,96,79,51,29.86,29.70,22,3,26,0.64
2013-5-21,79.3,71.6,63.9,67.1,64.7,62.5,99,80,62,29.79,29.67,15,3,16,0.21
2013-5-22,70.9,66.7,61.4,66.9,63.1,58.4,97,89,77,29.69,29.59,16,3,16,1.03
2013-5-23,61.8,51.1,42.1,59.6,48.3,36.4,97,90,76,30.22,29.66,19,3,19,0.86
2013-5-24,63.3,48.3,36.5,44.2,36.7,32.2,91,67,35,30.39,30.22,12,2,16,0.00
2013-5-25,65.9,53.1,39.8,44.3,39.6,35.7,94,64,35,30.42,30.27,11,1,11,0.00
2013-5-26,69.3,56.7,41.5,43.9,39.2,29.7,94,57,26,30.36,30.22,12,1,13,0.00
2013-5-27,69.5,56.2,43.8,50.5,43.1,35.8,89,64,31,30.25,29.99,17,3,17,0.00
2013-5-28,73.8,60.4,52.1,67.9,58.3,49.7,98,93,79,29.99,29.74,12,2,15,0.97
2013-5-29,78.6,70.6,64.1,68.5,65.6,61.6,97,85,67,29.95,29.75,17,3,19,0.09
2013-5-30,86.3,76.3,66.7,74.1,67.2,63.7,92,75,53,29.97,29.87,16,4,18,0.05
2013-5-31,81.3,75.0,67.1,68.0,65.3,60.8,91,73,52,29.90,29.77,21,5,21,0.07
2013-6-1,80.6,72.9,67.6,66.7,64.0,60.4,89,75,52,29.79,29.63,19,5,21,0.04
2013-6-2,67.5,56.9,46.4,63.9,51.2,39.9,95,82,65,30.02,29.59,19,5,21,0.09
2013-6-3,69.0,55.6,40.2,44.9,40.6,37.3,92,60,34,30.09,29.99,17,3,19,0.00
2013-6-4,70.9,60.2,46.6,46.4,42.9,39.3,84,55,36,30.20,30.08,12,2,12,0.00
2013-6-5,68.4,60.3,55.5,48.1,43.1,35.2,69,54,30,30.19,30.03,13,3,14,0.00
2013-6-6,68.8,59.9,54.6,52.3,48.6,44.6,82,67,47,30.04,29.91,14,3,14,0.00
2013-6-7,72.0,60.6,50.1,52.8,48.7,45.3,89,67,42,29.94,29.86,15,2,19,0.00
2013-6-8,72.9,62.9,50.6,54.1,51.9,48.7,93,69,46,30.06,29.91,8,1,10,0.00
2013-6-9,78.6,66.4,54.0,60.3,55.4,51.7,92,70,47,30.09,29.93,18,3,20,0.00
2013-6-10,68.1,64.3,60.1,65.0,60.8,54.2,97,89,65,29.93,29.76,9,2,12,0.14
2013-6-11,82.1,71.0,62.5,66.8,63.6,60.9,99,79,56,29.87,29.77,13,2,15,0.00
2013-6-12,79.3,69.5,61.0,68.3,63.5,59.3,97,82,59,29.90,29.66,12,2,12,0.15
2013-6-13,77.8,68.4,59.9,64.8,58.4,54.5,97,73,48,29.95,29.65,18,4,20,0.31
2013-6-14,79.3,67.4,54.9,54.7,49.2,38.6,90,57,24,30.10,29.95,11,2,12,0.00
2013-6-15,77.7,67.7,56.1,62.1,55.8,47.6,85,67,46,30.03,29.85,18,2,19,0.00
2013-6-16,81.8,72.0,64.2,66.1,61.0,49.6,97,72,34,29.85,29.73,19,4,19,1.18
2013-6-17,82.3,68.3,56.6,65.4,57.9,54.3,93,71,40,29.96,29.82,13,3,15,0.42
2013-6-18,71.2,62.2,54.9,54.6,48.4,43.6,93,63,39,30.10,29.94,16,3,17,0.00
2013-6-19,75.6,63.2,48.2,50.7,44.7,39.5,91,55,30,30.18,30.08,11,2,14,0.00
2013-6-20,83.6,69.7,53.0,56.6,50.8,44.8,90,56,30,30.18,30.11,10,1,10,0.00
2013-6-21,85.4,75.6,63.3,66.0,60.0,52.6,77,59,45,30.15,29.98,19,4,20,0.00
2013-6-22,89.1,78.9,69.9,71.5,66.9,62.7,86,68,47,30.03,29.91,13,2,13,0.00
2013-6-23,91.0,78.0,65.6,71.3,66.6,63.5,94,71,41,30.00,29.88,19,4,22,0.00
2013-6-24,86.7,81.4,73.4,70.5,66.4,61.3,82,61,46,29.99,29.85,16,4,20,0.00
2013-6-25,79.7,73.8,68.4,68.8,66.4,64.0,94,78,64,29.90,29.79,17,3,19,0.04
2013-6-26,87.0,75.5,65.1,71.5,67.3,63.4,95,77,50,29.83,29.72,12,2,12,0.00
2013-6-27,86.5,74.2,65.8,72.1,68.5,63.1,96,84,52,29.73,29.62,27,3,27,0.59
2013-6-28,80.0,68.9,63.8,67.0,64.0,59.6,97,85,54,29.62,29.52,17,2,17,0.23
2013-6-29,70.8,66.0,61.2,63.7,61.7,59.5,96,86,71,29.76,29.55,13,1,13,0.01
2013-6-30,81.9,70.0,62.1,61.9,57.3,47.6,91,66,37,29.99,29.76,14,2,15,0.00
2013-7-1,77.2,66.6,55.8,54.2,49.6,39.4,80,56,40,30.11,29.99,21,3,21,0.00
2013-7-2,74.6,64.3,56.3,59.1,51.4,40.4,91,64,44,30.10,30.05,15,2,17,0.07
2013-7-3,81.1,68.1,56.8,68.0,59.4,50.1,87,75,58,30.10,30.00,11,2,13,0.01
2013-7-4,80.8,71.5,63.7,65.0,62.2,58.0,95,75,47,30.09,30.03,13,2,18,0.00
2013-7-5,86.5,76.0,64.2,66.3,62.8,60.2,91,66,44,30.08,30.00,11,2,15,0.00
2013-7-6,88.4,77.3,67.9,69.0,65.0,62.3,85,67,43,30.05,29.93,10,2,12,0.00
2013-7-7,84.6,77.1,70.8,72.2,68.5,65.0,88,75,54,29.97,29.90,14,2,15,0.00
2013-7-8,78.5,74.4,71.4,73.1,70.2,67.0,95,87,75,29.97,29.91,12,2,15,0.29
2013-7-9,87.0,74.8,68.3,73.7,69.7,66.2,95,85,56,29.97,29.80,17,2,21,0.21
2013-7-10,81.5,75.4,64.7,73.1,65.7,55.4,94,74,48,29.94,29.73,19,5,21,0.00
2013-7-11,81.3,68.7,58.1,61.5,56.9,51.0,92,69,36,30.08,29.94,15,2,16,0.00
2013-7-12,81.1,68.5,55.7,62.1,57.6,53.4,93,70,45,30.17,30.08,10,1,11,0.00
2013-7-13,84.9,74.4,61.0,63.8,60.0,55.6,95,64,38,30.19,30.12,12,2,14,0.00
2013-7-14,89.6,78.2,64.7,71.0,65.7,61.1,89,67,46,30.24,30.18,9,2,10,0.00
2013-7-15,94.0,83.2,72.5,73.2,70.8,68.6,89,68,45,30.26,30.18,12,1,12,0.00
2013-7-16,95.7,84.6,74.1,75.1,72.8,70.8,91,70,46,30.26,30.18,15,2,16,0.00
2013-7-17,95.0,84.8,75.7,76.0,72.5,70.0,86,68,48,30.23,30.10,18,4,19,0.00
2013-7-18,96.4,85.4,74.9,75.1,71.2,67.2,90,65,40,30.11,29.86,17,3,20,0.00
2013-7-19,92.4,84.8,74.9,75.1,71.8,62.0,85,66,49,29.86,29.63,26,6,28,0.09
2013-7-20,83.4,74.5,64.0,68.2,61.5,50.3,89,66,40,29.94,29.69,16,2,18,0.11
2013-7-21,80.3,68.6,56.5,58.5,52.5,48.8,80,59,35,30.02,29.91,11,2,11,0.00
2013-7-22,85.5,73.9,62.7,67.6,64.1,57.9,94,73,50,29.94,29.69,15,3,16,0.35
2013-7-23,75.5,70.3,58.5,69.8,61.1,47.6,89,74,51,29.91,29.63,22,5,22,0.00
2013-7-24,71.9,62.0,50.7,50.6,48.2,46.6,87,63,43,30.05,29.92,11,2,14,0.00
2013-7-25,80.5,67.7,53.1,55.8,50.4,46.6,84,57,33,30.09,30.01,14,2,14,0.00
2013-7-26,76.4,66.4,61.8,64.0,59.3,54.3,95,79,57,30.04,29.86,14,3,16,0.28
2013-7-27,73.8,64.6,55.5,63.6,58.9,50.3,96,82,61,29.86,29.74,22,4,22,0.03
2013-7-28,67.5,58.6,50.5,55.3,51.8,47.8,94,79,55,29.93,29.78,18,3,20,0.17
2013-7-29,71.8,62.4,55.5,58.1,55.4,53.5,95,79,58,30.17,29.90,12,3,15,0.00
2013-7-30,79.5,66.4,52.2,59.4,55.2,51.1,97,70,39,30.22,30.09,10,1,12,0.00
2013-7-31,69.5,64.9,61.7,65.0,62.4,58.6,98,92,81,30.10,29.88,10,2,10,0.47
2013-8-1,77.8,68.6,61.3,63.8,58.2,51.4,97,73,40,29.90,29.86,20,4,23,0.00
2013-8-2,77.1,68.3,57.8,64.3,59.8,55.3,94,75,57,29.90,29.78,18,3,19,0.00
2013-8-3,77.8,67.7,56.8,58.1,55.1,51.8,93,66,43,30.06,29.88,15,3,17,0.00
2013-8-4,75.8,65.5,54.9,56.1,53.2,49.8,90,67,43,30.17,30.06,12,2,14,0.00
2013-8-5,71.6,62.5,53.0,57.5,54.0,49.7,94,75,47,30.09,29.92,8,2,10,0.00
2013-8-6,79.3,70.0,63.5,67.7,63.4,57.2,89,80,65,29.92,29.82,15,3,15,0.00
2013-8-7,83.4,73.1,62.9,69.3,64.9,60.7,95,77,53,29.92,29.68,22,4,27,0.67
2013-8-8,77.4,67.5,56.4,61.1,54.6,49.6,94,66,39,30.04,29.92,12,2,12,0.00
2013-8-9,79.3,69.1,55.9,61.4,57.2,51.5,94,68,43,30.00,29.91,17,3,22,0.00
2013-8-10,76.5,66.8,55.4,57.8,53.4,45.8,89,64,44,30.13,30.01,11,1,12,0.00
2013-8-11,75.4,66.7,57.6,59.2,56.3,53.5,90,71,48,30.12,30.02,12,2,13,0.00
2013-8-12,81.1,71.7,65.1,65.7,61.2,56.2,86,71,51,30.03,29.81,13,2,13,0.00
2013-8-13,67.7,60.7,52.2,57.6,47.4,41.6,85,63,40,30.08,29.87,22,5,22,0.00
2013-8-14,73.3,60.2,49.0,52.9,48.1,45.1,91,67,41,30.17,30.08,11,3,13,0.00
2013-8-15,77.5,63.1,49.4,57.8,49.4,45.2,86,64,34,30.13,30.05,13,2,16,0.00
2013-8-16,80.2,67.7,52.1,54.5,51.0,48.3,88,58,35,30.17,30.09,11,2,11,0.00
2013-8-17,82.6,70.8,53.8,57.8,52.8,48.6,90,57,31,30.25,30.16,11,2,12,0.00
2013-8-18,83.3,71.1,54.7,58.5,53.4,49.1,89,57,31,30.22,30.08,10,1,12,0.00
2013-8-19,84.4,71.4,56.4,59.8,57.0,53.2,90,63,39,30.10,30.00,14,2,15,0.00
2013-8-20,87.2,75.3,63.4,66.8,61.4,58.1,84,64,41,30.08,30.01,16,2,17,0.00
2013-8-21,89.4,78.7,68.4,67.7,64.6,62.3,85,64,44,30.06,29.91,21,3,21,0.00
2013-8-22,80.7,73.5,64.6,68.9,63.6,52.5,94,72,53,30.07,29.87,16,2,16,0.02
2013-8-23,80.8,68.3,54.3,58.2,53.4,43.3,86,62,30,30.18,30.07,15,2,16,0.00
2013-8-24,84.8,70.9,55.1,59.6,54.8,48.9,95,62,30,30.30,30.18,12,2,12,0.00
2013-8-25,90.2,76.5,62.4,67.0,61.9,56.0,83,62,45,30.25,30.07,21,4,21,0.00
2013-8-26,87.5,77.8,73.6,72.6,68.2,64.9,87,73,55,30.08,29.93,15,4,20,0.11
2013-8-27,81.6,74.3,70.4,76.0,71.4,69.1,98,91,82,29.94,29.78,24,2,28,2.61
2013-8-28,86.3,75.7,70.5,72.5,70.3,66.1,99,85,53,30.01,29.78,10,2,13,0.00
2013-8-29,86.9,76.2,64.5,70.6,66.5,63.4,97,74,47,30.07,29.97,9,1,10,0.00
2013-8-30,89.2,77.6,70.9,73.7,69.1,65.1,88,76,54,29.97,29.70,24,4,24,0.00
2013-8-31,78.2,71.8,66.7,66.4,64.6,62.0,89,79,62,29.85,29.76,10,1,11,0.00
2013-9-1,79.4,68.7,60.4,69.6,64.6,59.6,98,87,68,29.84,29.69,12,2,12,0.00
2013-9-2,71.4,63.8,58.8,68.3,56.9,51.2,92,79,65,29.93,29.72,15,5,19,0.00
2013-9-3,75.9,64.4,54.8,56.0,52.7,49.3,90,68,40,30.01,29.92,15,4,17,0.00
2013-9-4,81.5,67.4,56.7,66.4,59.4,52.9,95,77,56,30.11,29.98,20,3,20,0.00
2013-9-5,70.8,60.0,49.1,53.8,47.0,41.0,90,65,36,30.29,30.11,11,1,12,0.00
2013-9-6,78.4,63.2,47.6,56.4,51.5,45.4,93,69,41,30.26,30.00,11,2,12,0.00
2013-9-7,79.2,71.2,66.0,72.0,64.3,55.5,90,79,68,30.00,29.85,12,2,13,0.19
2013-9-8,71.3,66.6,56.7,67.7,57.1,49.6,94,73,48,30.11,29.93,16,3,18,0.00
2013-9-9,80.6,66.5,55.8,72.3,61.3,50.8,92,84,73,30.06,29.80,12,2,12,0.03
2013-9-10,93.3,83.0,74.6,72.8,68.8,63.6,90,65,39,29.92,29.78,20,4,20,0.00
2013-9-11,85.5,76.3,67.4,70.2,65.7,62.3,92,71,48,29.98,29.89,16,3,19,0.00
2013-9-12,75.5,66.3,56.6,65.1,56.7,44.7,94,73,50,30.01,29.86,18,4,22,0.00
2013-9-13,63.1,53.9,48.0,46.4,41.8,33.3,90,66,34,30.15,30.01,14,2,16,0.00
2013-9-14,70.0,55.4,40.3,51.4,42.4,35.0,94,66,30,30.18,30.04,16,2,18,0.00
2013-9-15,61.4,57.2,54.3,56.0,51.2,44.1,97,81,61,30.13,30.02,8,1,10,0.13
2013-9-16,62.0,53.4,46.4,53.7,46.0,40.8,96,78,49,30.40,30.13,14,2,14,0.00
2013-9-17,68.4,53.1,38.3,50.3,42.7,37.0,96,72,37,30.43,30.20,13,2,15,0.00
2013-9-18,79.1,61.6,45.0,56.3,49.9,42.8,93,69,37,30.20,29.98,15,2,15,0.00
2013-9-19,78.1,68.7,61.5,70.4,63.1,55.2,96,83,70,29.99,29.81,17,3,17,0.45
2013-9-20,73.5,69.8,65.0,69.5,66.3,62.7,96,89,77,29.82,29.69,17,3,20,0.01
2013-9-21,65.7,59.0,52.3,62.8,51.8,42.3,95,78,52,29.90,29.67,18,4,20,0.02
2013-9-22,56.1,50.6,46.1,45.8,43.1,40.1,90,76,56,30.10,29.90,12,2,14,0.00
2013-9-23,62.8,53.7,45.7,45.8,43.9,40.9,87,71,49,30.20,30.09,14,2,14,0.00
2013-9-24,66.9,53.2,39.6,51.0,45.7,38.3,96,78,53,30.17,30.01,10,1,11,0.00
2013-9-25,70.7,56.6,44.1,54.4,48.8,42.8,96,78,48,30.04,29.98,10,1,14,0.00
2013-9-26,75.0,59.2,48.8,57.4,50.5,44.0,99,77,34,30.14,30.02,9,1,9,0.01
2013-9-27,78.0,61.4,45.7,55.6,51.4,44.9,98,74,38,30.25,30.14,11,1,13,0.00
2013-9-28,79.9,64.2,51.4,59.9,54.1,49.9,98,73,38,30.17,29.93,14,3,17,0.00
2013-9-29,70.1,63.3,53.7,61.0,52.6,45.1,95,70,43,29.99,29.86,12,3,14,0.33
2013-9-30,69.6,59.7,51.8,55.9,52.2,47.9,98,78,49,30.01,29.89,12,2,12,0.00
2013-10-1,73.1,63.7,53.4,63.7,58.5,50.6,93,84,71,29.92,29.85,21,4,21,0.00
2013-10-2,76.2,64.8,53.7,62.4,48.6,34.8,92,61,23,30.08,29.88,10,2,12,0.00
2013-10-3,81.1,63.2,48.9,68.7,57.2,45.0,95,82,58,30.06,29.87,18,1,18,0.08
2013-10-4,75.3,67.8,60.7,68.6,65.3,59.6,97,92,76,30.04,29.84,11,2,12,0.73
2013-10-5,68.0,62.9,59.1,67.5,62.0,58.4,99,97,94,30.04,29.80,12,3,13,1.09
2013-10-6,69.7,62.4,51.8,67.9,60.8,50.4,99,95,89,29.79,29.65,13,3,15,0.08
2013-10-7,61.2,53.4,48.5,52.4,47.7,43.9,95,82,53,30.07,29.64,18,4,19,0.03
2013-10-8,70.3,56.4,42.1,49.7,46.4,41.3,97,73,43,30.25,30.07,14,2,14,0.00
2013-10-9,71.9,58.0,44.9,52.0,47.0,43.3,96,70,38,30.31,30.19,11,1,11,0.00
2013-10-10,70.7,55.9,42.5,53.8,46.8,41.6,97,75,40,30.24,30.12,10,1,12,0.00
2013-10-11,72.2,56.2,41.7,51.7,46.6,40.9,98,75,36,30.17,30.06,11,1,12,0.00
2013-10-12,79.4,61.4,45.1,61.0,51.7,43.8,96,74,39,30.08,29.97,16,2,17,0.02
2013-10-13,62.9,55.6,48.3,60.8,47.6,42.9,93,75,53,30.38,30.05,14,2,14,0.00
2013-10-14,61.7,50.6,41.6,46.5,41.8,37.9,96,74,43,30.44,30.28,10,1,12,0.00
2013-10-15,66.3,51.9,39.0,58.9,48.7,37.7,96,89,70,30.28,29.76,13,2,17,0.30
2013-10-16,60.1,52.7,48.2,58.9,50.3,46.1,97,92,82,29.87,29.73,15,3,16,0.03
2013-10-17,50.6,48.2,41.5,48.6,46.2,40.4,97,93,83,29.88,29.73,8,1,10,0.53
2013-10-18,61.0,48.7,40.2,48.4,43.0,38.9,96,82,51,29.87,29.78,17,3,21,0.01
2013-10-19,52.7,46.3,39.7,43.8,39.9,32.4,91,79,46,29.85,29.70,19,3,20,0.00
2013-10-20,55.4,46.8,39.2,47.6,40.6,36.4,97,81,51,29.87,29.72,14,2,17,0.13
2013-10-21,52.3,47.7,38.8,49.9,41.1,27.4,93,78,62,29.84,29.71,18,5,25,0.00
2013-10-22,48.9,40.6,34.0,35.8,31.5,26.3,88,70,51,29.88,29.82,19,4,19,0.00
2013-10-23,45.9,38.3,33.2,35.6,32.1,26.5,95,80,48,29.92,29.84,16,3,17,0.00
2013-10-24,45.9,37.8,31.6,35.0,32.0,29.9,94,80,57,30.17,29.91,18,4,18,0.00
2013-10-25,47.8,39.7,32.2,34.9,30.9,26.4,95,73,44,30.31,29.97,20,4,20,0.00
2013-10-26,50.1,44.1,37.6,43.2,37.4,31.8,88,77,59,30.00,29.71,25,6,34,0.11
2013-10-27,51.6,42.4,33.4,36.0,33.5,29.2,87,72,50,30.04,29.92,16,2,22,0.00
2013-10-28,43.4,41.3,38.0,37.8,33.6,29.4,84,74,63,30.45,30.00,12,2,14,0.00
2013-10-29,41.0,36.1,30.7,36.9,30.9,25.6,96,81,71,30.49,30.26,7,1,10,0.01
2013-10-30,58.7,44.7,30.1,50.3,40.4,29.4,98,86,69,30.26,29.90,9,1,11,0.00
2013-10-31,61.2,58.4,53.8,60.1,57.3,49.6,99,96,82,29.90,29.02,15,3,17,0.91
2013-11-1,59.8,48.7,45.7,58.3,46.5,43.8,96,92,85,29.65,29.03,28,5,30,0.10
2013-11-2,46.9,43.1,38.1,44.7,39.2,32.8,97,87,62,30.14,29.64,13,2,14,0.03
2013-11-3,44.4,39.1,32.1,34.5,32.5,29.4,91,77,64,30.42,30.14,11,2,14,0.00
2013-11-4,50.1,41.6,33.3,35.0,31.3,29.0,92,69,45,30.45,30.23,19,10,19,0.00
2013-11-5,60.2,54.7,44.7,48.7,47.2,35.5,85,76,65,30.30,30.07,11,4,12,0.00
2013-11-6,56.9,50.6,39.0,55.2,47.7,36.5,96,90,77,30.06,29.68,18,6,23,0.38
2013-11-7,42.9,38.0,35.5,36.6,29.7,23.9,91,73,51,30.14,29.99,19,5,26,0.00
2013-11-8,44.8,38.0,31.4,31.9,28.4,24.7,86,69,47,30.26,30.11,12,2,14,0.00
2013-11-9,50.6,45.2,37.9,42.4,36.4,30.8,79,71,57,30.11,29.73,33,7,33,0.00
2013-11-10,46.4,41.3,35.9,36.1,31.8,28.3,81,69,52,30.26,29.87,24,7,28,0.00
2013-11-11,40.6,34.6,26.1,37.0,29.4,20.2,93,81,69,30.39,30.03,21,4,22,0.11
2013-11-12,33.1,27.1,22.7,24.3,20.1,16.5,90,76,51,30.59,30.39,18,4,21,0.00
2013-11-13,42.8,31.8,22.2,28.7,21.5,17.9,86,68,38,30.52,30.06,21,5,27,0.00
2013-11-14,49.2,40.7,32.8,34.2,30.1,26.8,79,66,55,30.07,29.91,20,5,22,0.00
2013-11-15,49.2,43.3,37.1,36.4,32.8,29.9,76,67,58,30.01,29.92,12,3,15,0.00
2013-11-16,55.5,46.2,32.5,52.0,41.3,28.8,95,83,73,30.04,29.67,22,4,22,0.29
2013-11-17,62.2,55.9,44.2,59.8,54.3,41.6,98,94,84,29.65,29.07,35,8,36,0.74
2013-11-18,44.8,38.2,34.0,42.6,30.4,24.9,92,73,66,30.14,29.37,38,11,38,0.00
2013-11-19,39.6,33.5,28.7,26.0,23.8,22.0,84,68,53,30.41,30.15,15,2,19,0.00
2013-11-20,43.9,34.9,27.1,33.6,28.4,24.0,89,78,57,30.43,30.23,15,3,15,0.00
2013-11-21,47.4,41.9,36.0,42.3,38.3,29.4,96,87,75,30.26,30.17,6,1,7,0.08
2013-11-22,43.2,35.8,26.2,42.1,32.0,23.2,97,86,70,30.40,30.15,19,4,21,0.01
2013-11-23,28.4,22.8,16.2,24.2,15.6,7.9,89,74,53,30.57,30.28,27,7,28,0.00
2013-11-24,23.3,19.1,14.9,14.2,11.7,9.2,86,73,58,30.64,30.34,15,5,18,0.00
2013-11-25,31.7,27.0,21.2,30.1,20.8,9.9,95,78,60,30.34,30.00,22,7,26,0.00
2013-11-26,33.5,30.9,24.9,31.2,28.3,18.9,95,90,78,30.04,29.94,17,4,18,0.00
2013-11-27,26.4,21.7,17.5,18.9,14.8,10.5,88,75,52,30.22,30.02,20,5,25,0.00
2013-11-28,25.3,21.9,17.8,23.3,19.5,14.8,94,90,85,30.45,30.23,11,1,12,0.00
2013-11-29,25.0,21.9,19.2,22.4,20.1,17.8,95,93,88,30.69,30.45,6,1,7,0.00
2013-11-30,43.9,34.1,21.2,32.4,27.5,19.5,93,77,63,30.56,30.05,13,3,14,0.03
2013-12-1,38.8,36.1,32.5,33.9,31.7,28.6,93,84,77,30.09,30.02,11,1,12,0.00
2013-12-2,37.6,33.5,28.4,28.8,27.4,25.0,88,79,67,30.04,29.91,7,1,7,0.00
2013-12-3,33.2,30.7,26.8,32.2,28.7,24.3,96,92,80,29.94,29.87,13,3,13,0.53
2013-12-4,54.4,38.4,32.9,53.6,37.9,32.0,99,98,91,29.89,29.53,17,2,17,0.41
2013-12-5,54.3,37.4,25.4,51.7,30.1,17.0,91,75,57,30.15,29.53,26,8,34,0.00
2013-12-6,25.3,21.4,17.9,17.2,13.6,11.1,78,72,65,30.43,30.14,15,5,19,0.00
2013-12-7,20.9,17.5,12.3,13.8,8.9,6.7,80,69,59,30.65,30.43,18,5,20,0.00
2013-12-8,22.7,16.5,11.4,21.5,11.7,6.8,95,82,66,30.62,30.02,13,3,14,0.00
2013-12-9,28.3,23.0,12.9,26.0,19.4,5.4,95,86,65,30.10,29.85,23,4,26,0.00
2013-12-10,19.1,14.0,7.0,15.3,9.2,3.4,90,81,71,30.18,29.90,24,5,30,0.00
2013-12-11,16.9,13.2,5.0,12.0,6.6,1.3,87,75,57,30.46,30.18,20,5,22,0.00
2013-12-12,21.0,13.7,5.9,17.2,9.7,2.9,89,84,77,30.47,30.15,21,4,23,0.00
2013-12-13,23.6,21.0,12.9,18.4,15.9,8.4,88,80,70,30.37,30.12,14,3,16,0.00
2013-12-14,19.8,16.5,11.1,18.1,14.1,7.6,94,90,82,30.37,29.90,16,4,18,0.00
2013-12-15,21.7,17.8,12.7,19.0,13.5,6.8,93,83,70,30.00,29.82,22,4,23,0.00
2013-12-16,17.2,11.8,1.9,11.2,6.6,-0.6,91,80,62,30.23,30.00,10,2,14,0.00
2013-12-17,30.5,22.5,14.1,28.0,19.6,11.2,93,89,80,30.06,29.82,17,2,18,0.00
2013-12-18,28.3,25.3,21.5,23.6,19.8,13.7,91,80,66,30.11,29.83,18,3,20,0.00
2013-12-19,34.2,29.0,21.5,30.6,25.1,13.9,95,86,72,30.03,29.79,9,2,11,0.02
2013-12-20,30.7,28.9,26.7,30.0,27.8,25.7,97,95,93,29.95,29.79,11,2,12,0.00
2013-12-21,29.8,28.3,26.6,28.8,27.3,25.2,98,96,91,29.93,29.78,13,2,15,0.00
2013-12-22,29.3,26.5,21.9,28.6,25.2,20.4,97,95,91,30.03,29.67,14,2,16,0.00
2013-12-23,25.5,20.8,14.5,20.6,17.9,11.6,95,88,76,30.34,30.02,6,1,7,0.00
2013-12-24,17.8,12.4,7.4,12.4,8.4,4.4,93,84,71,30.54,30.34,10,1,11,0.00
2013-12-25,23.7,19.0,8.1,21.9,16.5,6.1,93,90,85,30.50,30.07,18,4,18,0.00
2013-12-26,25.0,23.3,21.2,23.0,20.1,16.4,94,87,74,30.25,30.02,18,3,18,0.00
2013-12-27,36.5,28.3,23.1,32.4,25.7,19.9,96,90,84,30.31,29.98,16,3,20,0.00
2013-12-28,44.4,37.8,30.7,36.7,33.1,29.1,95,83,73,30.07,29.82,14,3,15,0.42
2013-12-29,41.2,29.8,16.2,34.2,24.1,7.5,88,79,68,30.08,29.72,20,5,22,0.00
2013-12-30,18.2,14.5,10.2,11.1,6.4,2.0,88,70,58,30.31,30.08,12,2,13,0.00
2013-12-31,16.6,13.1,9.7,10.9,7.6,4.5,89,79,66,30.34,30.09,23,5,23,0.00
2014-1-1,13.4,10.1,3.2,6.7,3.2,-0.3,87,74,61,30.47,30.37,13,2,15,0.00
2014-1-2,10.9,8.5,0.3,6.4,2.1,-4.4,82,75,60,30.41,30.26,19,3,20,0.00